Accueil
METAR-TAF:

METAR-TAF

Aéroports :

Base aérienne de Neubourg

Neubourg, Allemagne

latitude: 48-43N, longitude: 011-13E, altitude: 380 m

Observation

Le bulletin a été fait il y a 51 minutes, à 21:20 UTC
Vent 3 kt de nord
Température 21°C
Humidité 53%
Pression 1019 hPa
Visibilité 10 km ou plus
Nuages épars à une hauteur de 33000 ft

METAR: ETSN 212120Z 36003KT 9999 SCT330 21/11 Q1019 BLU+

Heure: 00:11 (22:11 UTC)

Prévision

Le bulletin a été fait il y a 2 heures et 31 minutes, à 19:40 UTC
Prévision valable du 21 à 20 UTC au 22 à 05 UTC
Vent 4 kt de nord/nord-est
Visibilité 10 km ou plus
Quelques nuages à une hauteur de 6000 ft

TAF: ETSN 211940Z 2120/2205 03004KT 9999 NSW FEW060 BY ETGL

Observations et prévisions météorologiques de plus de 4000 aéroports (messages METAR et TAF).

Les stations disponibles sont représentées par des disques jaunes et rouges sur la carte.

Passer la souris dessus pour voir le nom de la station.

Cliquer dessus pour voir les observations et prévisions météorologiques.

Pour changer de carte: cliquez sur les boutons verts avec une croix noire pour zoomer, sur le bouton vert avec un tiret pour effectuer un zoom arrière, ou sur les flèches vertes pour les cartes adjacentes.


METAR-TAF: